Time;durP1;ratioP1;P1;durP2;ratioP2;P2;SDS_P1;SDS_P2;PMS_P1;PMS_P2;Temp;Humidity;BMP_temperature;BMP_pressure;BME280_temperature;BME280_humidity;BME280_pressure;Samples;Min_cycle;Max_cycle;Signal;HPM_P1;HPM_P2
2023/07/03 00:01:55;;;;;;;2.93;2.63;;;;;;;18.66;47.22;100543.38;4953791;28;97433;-51
2023/07/03 00:04:20;;;;;;;4.67;2.67;;;;;;;18.64;47.34;100549.53;4953453;28;98307;-48
2023/07/03 00:06:46;;;;;;;3.43;3.13;;;;;;;18.65;47.35;100550.28;4953693;28;97152;-50
2023/07/03 00:09:11;;;;;;;2.77;2.20;;;;;;;18.64;47.44;100559.91;4953276;28;97134;-51
2023/07/03 00:11:36;;;;;;;8.20;3.07;;;;;;;18.59;47.29;100556.00;4954737;28;98792;-50
2023/07/03 00:14:02;;;;;;;3.47;2.50;;;;;;;18.63;47.65;100556.38;4952593;28;97266;-49
2023/07/03 00:16:27;;;;;;;3.30;3.00;;;;;;;18.68;47.51;100549.16;4953432;28;97262;-50
2023/07/03 00:18:52;;;;;;;3.83;2.70;;;;;;;18.72;47.19;100549.53;4954384;28;97125;-51
2023/07/03 00:21:18;;;;;;;2.70;1.93;;;;;;;18.77;47.52;100545.09;4951376;28;97085;-48
2023/07/03 00:23:43;;;;;;;3.50;2.73;;;;;;;18.80;47.03;100549.56;4951713;28;96986;-49
2023/07/03 00:26:08;;;;;;;6.47;3.00;;;;;;;18.82;46.98;100549.78;4950615;28;110486;-51
2023/07/03 00:28:34;;;;;;;3.30;2.90;;;;;;;18.86;47.11;100547.38;4953463;28;105420;-49
2023/07/03 00:30:59;;;;;;;3.20;2.57;;;;;;;18.86;47.17;100548.13;4951084;28;105627;-51
2023/07/03 00:33:24;;;;;;;3.23;2.80;;;;;;;18.88;47.13;100547.56;4952074;28;99606;-50
2023/07/03 00:35:49;;;;;;;4.00;2.67;;;;;;;18.88;47.13;100548.31;4952880;28;98304;-49
2023/07/03 00:38:15;;;;;;;4.47;2.97;;;;;;;18.88;47.13;100530.81;4952530;28;108400;-50
2023/07/03 00:40:40;;;;;;;3.03;2.20;;;;;;;18.90;46.97;100542.91;4951527;28;96740;-48
2023/07/03 00:43:05;;;;;;;4.80;2.80;;;;;;;18.92;46.91;100540.31;4952392;28;97194;-51
2023/07/03 00:45:32;;;;;;;5.03;2.17;;;;;;;18.98;46.61;100529.75;4951305;28;103177;-51
2023/07/03 00:47:58;;;;;;;3.67;2.93;;;;;;;19.02;46.63;100535.72;4951130;28;96808;-47
2023/07/03 00:50:24;;;;;;;7.37;3.20;;;;;;;19.03;46.45;100534.41;4953867;28;96804;-50
2023/07/03 00:52:58;;;;;;;3.53;2.60;;;;;;;19.07;46.15;100528.47;4951695;28;97162;-51
2023/07/03 00:55:24;;;;;;;4.13;2.70;;;;;;;19.09;46.24;100537.03;4951767;28;96992;-49
2023/07/03 00:57:51;;;;;;;3.97;2.60;;;;;;;19.12;46.19;100533.88;4950917;28;97462;-51
2023/07/03 01:00:17;;;;;;;3.77;2.40;;;;;;;19.15;46.29;100523.66;4951415;28;97140;-50
2023/07/03 01:02:48;;;;;;;2.73;2.33;;;;;;;19.17;46.19;100523.84;4951247;28;97370;-50
2023/07/03 01:05:22;;;;;;;4.00;2.97;;;;;;;19.16;46.37;100523.09;4949627;28;97518;-50
2023/07/03 01:07:48;;;;;;;8.30;3.27;;;;;;;19.14;46.32;100517.31;4950314;28;99555;-49
2023/07/03 01:10:18;;;;;;;3.60;3.00;;;;;;;19.15;46.12;100509.72;4950534;28;97170;-50
2023/07/03 01:12:47;;;;;;;3.13;2.43;;;;;;;19.13;46.27;100518.63;4954071;28;97198;-51
2023/07/03 01:15:21;;;;;;;2.77;2.57;;;;;;;19.12;46.64;100511.56;4950875;28;97130;-50
2023/07/03 01:17:50;;;;;;;4.83;2.87;;;;;;;19.10;46.31;100519.75;4950309;28;97181;-49
2023/07/03 01:20:18;;;;;;;4.50;2.97;;;;;;;19.11;46.24;100512.84;4951007;28;96859;-49
2023/07/03 01:23:11;;;;;;;4.73;2.80;;;;;;;19.12;46.11;100505.22;4950772;28;97063;-50
2023/07/03 01:25:40;;;;;;;2.93;2.27;;;;;;;19.12;46.29;100494.81;4952902;28;97372;-51
2023/07/03 01:28:09;;;;;;;3.47;2.93;;;;;;;19.12;46.15;100497.63;4951692;28;96985;-49
2023/07/03 01:30:36;;;;;;;4.83;3.47;;;;;;;19.12;46.17;100505.22;4951607;28;97419;-50
2023/07/03 01:33:03;;;;;;;3.80;2.93;;;;;;;19.13;46.12;100515.09;4951866;28;96966;-51
2023/07/03 01:35:30;;;;;;;8.93;3.40;;;;;;;19.12;45.93;100508.03;4950231;28;97285;-50
2023/07/03 01:37:58;;;;;;;2.90;2.60;;;;;;;19.13;46.13;100510.25;4951138;28;97124;-50
2023/07/03 01:40:25;;;;;;;4.10;2.23;;;;;;;19.12;45.95;100508.78;4950615;28;97184;-51
2023/07/03 01:42:53;;;;;;;5.80;3.13;;;;;;;19.11;45.86;100507.28;4947765;28;97201;-50
2023/07/03 01:45:19;;;;;;;4.20;3.07;;;;;;;19.10;45.88;100510.63;4950540;28;97023;-50
2023/07/03 01:47:44;;;;;;;3.07;2.73;;;;;;;19.07;45.92;100508.94;4950746;28;97818;-50
2023/07/03 01:50:17;;;;;;;15.00;2.83;;;;;;;19.08;45.96;100511.19;4952084;28;96796;-51
2023/07/03 01:53:05;;;;;;;3.33;2.40;;;;;;;19.09;45.85;100509.88;4948768;28;97054;-51
2023/07/03 01:55:49;;;;;;;3.67;2.50;;;;;;;19.10;45.75;100511.38;4952173;28;97358;-50
2023/07/03 01:58:23;;;;;;;3.23;2.57;;;;;;;19.13;45.86;100503.94;4950120;28;96664;-50
2023/07/03 02:00:52;;;;;;;7.53;2.97;;;;;;;19.14;45.94;100519.38;4952700;28;97117;-49
2023/07/03 02:03:26;;;;;;;7.83;3.20;;;;;;;19.15;46.05;100509.72;4954320;28;97109;-49
2023/07/03 02:05:54;;;;;;;5.00;3.40;;;;;;;19.12;46.03;100513.59;4950203;28;96876;-49
2023/07/03 02:08:21;;;;;;;4.40;3.33;;;;;;;19.11;46.06;100514.91;4952033;28;97590;-50
2023/07/03 02:10:46;;;;;;;5.23;3.27;;;;;;;19.11;46.00;100518.44;4952539;28;96801;-49
2023/07/03 02:13:12;;;;;;;3.77;2.77;;;;;;;19.10;46.00;100516.94;4949574;28;97336;-50
2023/07/03 02:15:38;;;;;;;7.47;3.30;;;;;;;19.12;46.09;100508.78;4948637;28;97659;-50
2023/07/03 02:18:03;;;;;;;3.80;3.13;;;;;;;19.13;46.07;100504.66;4949556;28;97183;-48
2023/07/03 02:20:29;;;;;;;5.10;3.40;;;;;;;19.13;46.11;100524.19;4950284;28;96649;-50
2023/07/03 02:22:56;;;;;;;5.53;3.50;;;;;;;19.12;46.11;100502.44;4949382;28;97170;-49
2023/07/03 02:25:21;;;;;;;4.60;3.00;;;;;;;19.11;46.10;100510.06;4950016;28;98164;-50
2023/07/03 02:27:50;;;;;;;5.23;2.90;;;;;;;19.11;46.26;100506.53;4951452;28;99395;-50
2023/07/03 02:30:16;;;;;;;7.10;3.27;;;;;;;19.12;46.09;100511.56;4951104;28;97997;-49
2023/07/03 02:32:41;;;;;;;5.90;3.47;;;;;;;19.10;46.30;100505.78;4951174;28;97248;-50
2023/07/03 02:35:09;;;;;;;4.90;3.07;;;;;;;19.09;46.49;100500.78;4949183;28;98533;-49
2023/07/03 02:37:34;;;;;;;7.27;3.10;;;;;;;19.09;46.21;100503.56;4950358;28;97814;-50
2023/07/03 02:40:00;;;;;;;3.77;3.00;;;;;;;19.07;46.43;100490.16;4948156;28;97189;-51
2023/07/03 02:42:25;;;;;;;6.83;2.90;;;;;;;19.04;46.37;100496.88;4948887;28;105974;-49
2023/07/03 02:44:52;;;;;;;3.83;2.90;;;;;;;19.02;46.59;100507.09;4948940;28;97013;-49
2023/07/03 02:47:17;;;;;;;7.27;3.73;;;;;;;19.05;46.69;100501.13;4949979;28;98422;-49
2023/07/03 02:49:43;;;;;;;7.40;3.80;;;;;;;19.05;46.66;100503.16;4949063;28;96969;-49
2023/07/03 02:52:08;;;;;;;8.20;3.60;;;;;;;19.05;46.72;100501.13;4952062;28;101492;-49
2023/07/03 02:54:34;;;;;;;5.30;2.90;;;;;;;19.03;46.93;100494.63;4949997;28;97419;-49
2023/07/03 02:56:59;;;;;;;6.33;3.00;;;;;;;19.03;46.59;100498.16;4948995;28;98561;-49
2023/07/03 02:59:24;;;;;;;4.70;2.90;;;;;;;19.03;46.84;100497.41;4949228;28;105028;-49
2023/07/03 03:01:50;;;;;;;6.73;3.20;;;;;;;19.04;46.86;100490.53;4948261;28;97595;-49
2023/07/03 03:04:16;;;;;;;5.70;2.90;;;;;;;19.05;46.96;100492.75;4947781;28;98130;-49
2023/07/03 03:06:42;;;;;;;4.53;2.87;;;;;;;19.08;46.96;100500.03;4950393;28;97677;-49
2023/07/03 03:09:09;;;;;;;7.33;3.20;;;;;;;19.10;46.83;100491.84;4949148;28;97139;-49
2023/07/03 03:11:34;;;;;;;4.77;3.10;;;;;;;19.10;47.01;100489.06;4946100;28;97920;-49
2023/07/03 03:14:00;;;;;;;6.77;3.40;;;;;;;19.12;46.95;100483.69;4947793;28;97139;-49
2023/07/03 03:16:25;;;;;;;11.83;4.13;;;;;;;19.13;46.92;100487.22;4950835;28;98712;-49
2023/07/03 03:18:50;;;;;;;7.27;3.67;;;;;;;19.11;47.02;100489.81;4949031;28;96905;-49
2023/07/03 03:21:16;;;;;;;6.90;3.63;;;;;;;19.10;47.10;100483.50;4947666;28;98776;-49
2023/07/03 03:23:41;;;;;;;6.10;2.83;;;;;;;19.10;47.12;100479.94;4950112;28;97637;-49
2023/07/03 03:26:07;;;;;;;4.77;2.93;;;;;;;19.10;47.43;100477.16;4951665;28;97156;-49
2023/07/03 03:28:33;;;;;;;6.13;3.10;;;;;;;19.12;47.33;100478.09;4954309;28;97317;-49
2023/07/03 03:30:58;;;;;;;5.93;3.53;;;;;;;19.12;47.23;100477.34;4954806;28;97440;-49
2023/07/03 03:33:24;;;;;;;4.70;2.77;;;;;;;19.09;47.44;100476.41;4953918;28;98739;-49
2023/07/03 03:35:49;;;;;;;7.90;3.10;;;;;;;19.11;47.46;100476.59;4953476;28;108277;-49
2023/07/03 03:38:14;;;;;;;5.70;3.20;;;;;;;19.12;47.57;100472.53;4952326;28;97274;-49
2023/07/03 03:40:40;;;;;;;9.93;3.13;;;;;;;19.12;47.60;100480.88;4953613;28;96998;-49
2023/07/03 03:43:05;;;;;;;7.60;3.40;;;;;;;19.10;47.64;100480.69;4941004;28;97621;-49
2023/07/03 03:45:30;;;;;;;5.57;3.00;;;;;;;19.09;47.87;100487.56;4952890;28;97326;-49
2023/07/03 03:47:56;;;;;;;4.97;3.10;;;;;;;19.07;47.67;100486.63;4945440;28;96909;-49
2023/07/03 03:50:21;;;;;;;4.50;2.97;;;;;;;19.11;47.87;100484.25;4950358;28;104288;-49
2023/07/03 03:52:46;;;;;;;5.80;2.90;;;;;;;19.12;47.91;100475.31;4950638;28;103149;-49
2023/07/03 03:55:12;;;;;;;5.20;3.13;;;;;;;19.11;47.74;100473.81;4947598;28;97714;-49
2023/07/03 03:57:37;;;;;;;6.30;3.53;;;;;;;19.12;47.97;100472.53;4950514;28;96748;-49
2023/07/03 04:00:06;;;;;;;7.00;3.27;;;;;;;19.12;47.95;100480.13;4952575;28;97339;-49
2023/07/03 04:02:32;;;;;;;7.27;3.37;;;;;;;19.10;48.05;100463.97;4951235;28;97184;-49
2023/07/03 04:04:57;;;;;;;5.80;3.07;;;;;;;19.12;48.03;100468.97;4951075;28;98689;-49
2023/07/03 04:07:22;;;;;;;3.70;2.63;;;;;;;19.15;48.15;100465.09;4951401;28;101895;-49
2023/07/03 04:09:47;;;;;;;3.33;2.87;;;;;;;19.17;48.09;100466.03;4953277;28;96922;-49
2023/07/03 04:12:13;;;;;;;4.50;2.83;;;;;;;19.17;48.14;100468.06;4950641;28;97189;-49
2023/07/03 04:14:38;;;;;;;7.20;3.00;;;;;;;19.16;48.18;100472.88;4952631;28;102561;-49
2023/07/03 04:17:05;;;;;;;7.50;3.00;;;;;;;19.16;48.32;100472.13;4953778;28;97585;-49
2023/07/03 04:19:30;;;;;;;9.70;3.10;;;;;;;19.14;48.26;100467.13;4951922;28;97012;-49
2023/07/03 04:21:56;;;;;;;7.40;3.17;;;;;;;19.17;48.52;100466.03;4949565;28;98770;-49
2023/07/03 04:24:21;;;;;;;6.10;3.40;;;;;;;19.21;48.47;100479.59;4951657;28;109622;-49
2023/07/03 04:26:46;;;;;;;5.90;2.60;;;;;;;19.22;48.60;100476.22;4954014;28;103105;-49
2023/07/03 04:29:12;;;;;;;4.33;3.07;;;;;;;19.22;48.64;100473.44;4952400;28;99349;-49
2023/07/03 04:31:39;;;;;;;7.00;3.43;;;;;;;19.24;48.64;100481.28;4950957;28;97222;-49
2023/07/03 04:34:05;;;;;;;3.00;2.50;;;;;;;19.26;48.60;100484.25;4952569;28;97565;-49
2023/07/03 04:36:31;;;;;;;6.30;2.97;;;;;;;19.27;48.70;100478.09;4950560;28;97047;-49
2023/07/03 04:38:57;;;;;;;6.50;2.60;;;;;;;19.28;49.19;100493.56;4952519;28;97089;-49
2023/07/03 04:41:29;;;;;;;6.60;3.80;;;;;;;19.32;48.91;100493.19;4953524;28;98559;-49
2023/07/03 04:43:57;;;;;;;4.30;2.90;;;;;;;19.33;48.80;100500.97;4951832;28;96965;-49
2023/07/03 04:46:26;;;;;;;7.30;2.60;;;;;;;19.33;49.20;100495.41;4950533;28;97273;-49
2023/07/03 04:48:53;;;;;;;5.37;3.17;;;;;;;19.33;49.32;100494.69;4950892;28;97366;-49
2023/07/03 04:51:19;;;;;;;6.13;3.20;;;;;;;19.33;49.08;100494.69;4953849;28;97605;-49
2023/07/03 04:53:44;;;;;;;7.83;3.57;;;;;;;19.33;48.94;100495.41;4954119;28;97326;-49
2023/07/03 04:56:10;;;;;;;5.73;3.23;;;;;;;19.37;49.17;100495.78;4949808;28;96745;-49
2023/07/03 04:58:36;;;;;;;5.03;2.90;;;;;;;19.39;49.15;100495.25;4950679;28;97141;-49
2023/07/03 05:01:02;;;;;;;6.13;3.17;;;;;;;19.37;49.11;100492.28;4953072;28;97490;-49
2023/07/03 05:03:28;;;;;;;6.30;3.00;;;;;;;19.39;49.27;100487.63;4952555;28;97384;-49
2023/07/03 05:05:53;;;;;;;13.93;3.40;;;;;;;19.45;49.41;100490.22;4949977;28;97657;-49
2023/07/03 05:08:18;;;;;;;5.67;3.67;;;;;;;19.49;49.32;100490.59;4951206;28;97297;-49
2023/07/03 05:10:44;;;;;;;6.83;3.20;;;;;;;19.49;49.12;100493.38;4951268;28;99929;-49
2023/07/03 05:13:09;;;;;;;4.77;2.83;;;;;;;19.51;49.23;100498.41;4952341;28;98919;-49
2023/07/03 05:15:34;;;;;;;7.77;3.40;;;;;;;19.54;49.28;100498.06;4951593;28;103756;-49
2023/07/03 05:17:59;;;;;;;5.90;3.23;;;;;;;19.56;49.21;100503.81;4952061;28;97939;-49
2023/07/03 05:20:29;;;;;;;6.43;3.43;;;;;;;19.58;49.25;100498.41;4951571;28;97841;-49
2023/07/03 05:22:55;;;;;;;5.90;3.23;;;;;;;19.58;49.16;100500.47;4949543;28;96649;-49
2023/07/03 05:25:21;;;;;;;7.33;3.23;;;;;;;19.58;49.27;100503.25;4948654;28;97090;-49
2023/07/03 05:27:48;;;;;;;8.30;3.60;;;;;;;19.59;49.08;100502.72;4952754;28;96806;-49
2023/07/03 05:30:14;;;;;;;6.93;3.37;;;;;;;19.62;49.10;100509.94;4952594;28;100562;-49
2023/07/03 05:32:40;;;;;;;7.07;3.20;;;;;;;19.64;49.04;100512.16;4948765;28;97425;-49
2023/07/03 05:35:06;;;;;;;4.80;3.20;;;;;;;19.63;49.10;100510.69;4951100;28;97188;-49
2023/07/03 05:37:32;;;;;;;6.97;3.13;;;;;;;19.66;49.27;100499.16;4952386;28;97008;-49
2023/07/03 05:39:58;;;;;;;6.53;3.33;;;;;;;19.65;48.98;100506.03;4950093;28;97415;-49
2023/07/03 05:42:23;;;;;;;7.13;3.20;;;;;;;19.67;49.25;100511.81;4951005;28;98260;-49
2023/07/03 05:44:49;;;;;;;8.80;3.43;;;;;;;19.66;49.05;100515.16;4952123;28;97080;-49
2023/07/03 05:47:16;;;;;;;7.63;3.63;;;;;;;19.68;49.14;100526.53;4953183;28;96988;-49
2023/07/03 05:49:41;;;;;;;8.47;3.70;;;;;;;19.69;49.27;100519.63;4949802;28;97373;-49
2023/07/03 05:52:08;;;;;;;7.40;3.47;;;;;;;19.74;49.25;100527.81;4950404;28;96982;-49
2023/07/03 05:54:33;;;;;;;8.87;3.17;;;;;;;19.77;49.13;100525.94;4948620;28;97496;-49
2023/07/03 05:57:01;;;;;;;6.97;3.43;;;;;;;19.82;49.13;100533.38;4949764;28;96904;-49
2023/07/03 05:59:27;;;;;;;6.37;2.87;;;;;;;19.83;48.94;100526.50;4952176;28;97060;-49
2023/07/03 06:01:55;;;;;;;4.70;3.13;;;;;;;19.86;48.84;100537.28;4951645;28;97111;-49
2023/07/03 06:04:22;;;;;;;10.30;3.33;;;;;;;19.88;49.08;100545.84;4952914;28;97526;-49
2023/07/03 06:06:57;;;;;;;6.80;3.60;;;;;;;19.90;48.79;100548.06;4950615;28;97159;-49
2023/07/03 06:09:23;;;;;;;7.30;3.10;;;;;;;19.83;48.98;100557.22;4949786;28;97682;-49
2023/07/03 06:11:49;;;;;;;7.43;3.40;;;;;;;19.78;48.86;100541.41;4950045;28;98538;-49
2023/07/03 06:14:17;;;;;;;4.13;2.60;;;;;;;19.71;48.93;100568.00;4950693;28;97681;-49
2023/07/03 06:16:43;;;;;;;9.23;3.53;;;;;;;19.70;48.98;100571.38;4953361;28;97142;-49
2023/07/03 06:19:09;;;;;;;6.13;2.70;;;;;;;19.72;49.03;100574.34;4948547;28;97409;-49
2023/07/03 06:21:35;;;;;;;7.07;2.77;;;;;;;19.71;48.93;100575.63;4951124;28;97946;-49
2023/07/03 06:24:00;;;;;;;8.07;2.70;;;;;;;19.67;49.18;100572.47;4951702;28;97123;-49
2023/07/03 06:26:29;;;;;;;5.87;3.30;;;;;;;19.69;49.20;100581.03;4953277;28;97355;-49
2023/07/03 06:28:54;;;;;;;5.50;3.00;;;;;;;19.73;49.00;100570.22;4951448;28;97147;-49
2023/07/03 06:31:19;;;;;;;4.93;2.50;;;;;;;19.75;48.92;100573.22;4951979;28;97332;-49
2023/07/03 06:33:44;;;;;;;7.83;3.23;;;;;;;19.74;49.01;100572.50;4940116;28;96897;-49
2023/07/03 06:36:10;;;;;;;7.80;2.50;;;;;;;19.73;49.10;100570.22;4950656;28;97434;-49
2023/07/03 06:38:35;;;;;;;11.43;3.70;;;;;;;19.73;49.02;100567.44;4949357;28;97174;-49
2023/07/03 06:41:00;;;;;;;6.90;2.80;;;;;;;19.75;49.30;100578.78;4948944;28;97458;-49
2023/07/03 06:43:26;;;;;;;5.37;2.60;;;;;;;19.78;49.01;100586.06;4950069;28;96837;-49
2023/07/03 06:45:51;;;;;;;5.57;2.43;;;;;;;19.84;49.14;100575.44;4950766;28;96815;-49
2023/07/03 06:48:17;;;;;;;4.87;2.60;;;;;;;19.84;49.12;100570.63;4949664;28;97131;-49
2023/07/03 06:50:42;;;;;;;7.97;3.20;;;;;;;19.89;48.93;100566.16;4950890;28;97670;-49
2023/07/03 06:53:08;;;;;;;5.87;2.57;;;;;;;19.91;49.00;100583.09;4950846;28;96965;-49
2023/07/03 06:55:33;;;;;;;4.93;2.50;;;;;;;19.90;48.66;100601.13;4947670;28;100146;-49
2023/07/03 06:58:00;;;;;;;5.27;2.60;;;;;;;19.90;49.03;100584.38;4950275;28;98768;-49
2023/07/03 07:00:26;;;;;;;6.53;2.30;;;;;;;19.98;49.07;100585.13;4952115;28;97056;-49
2023/07/03 07:02:52;;;;;;;3.80;2.53;;;;;;;20.15;48.75;100582.50;4950296;28;100958;-49
2023/07/03 07:05:19;;;;;;;7.80;2.67;;;;;;;20.26;48.74;100586.97;4953483;28;97734;-49
2023/07/03 07:07:45;;;;;;;5.47;2.80;;;;;;;20.36;48.53;100591.44;4953452;28;96870;-49
2023/07/03 07:10:10;;;;;;;5.33;2.83;;;;;;;20.36;48.45;100591.44;4951714;28;98084;-49
2023/07/03 07:12:36;;;;;;;5.73;2.20;;;;;;;20.39;48.69;100598.69;4952332;28;97586;-49
2023/07/03 07:15:01;;;;;;;3.37;2.40;;;;;;;20.36;48.35;100588.63;4953228;28;97110;-49
2023/07/03 07:17:26;;;;;;;3.70;2.23;;;;;;;20.33;48.32;100591.81;4953536;28;97152;-49
2023/07/03 07:19:51;;;;;;;6.80;3.00;;;;;;;20.31;48.38;100588.84;4952750;28;97176;-49
2023/07/03 07:22:17;;;;;;;7.80;3.37;;;;;;;20.37;48.54;100592.94;4955134;28;96968;-49
2023/07/03 07:24:42;;;;;;;7.87;2.37;;;;;;;20.46;48.42;100586.00;4954457;28;97850;-49
2023/07/03 07:27:08;;;;;;;8.97;3.20;;;;;;;20.61;48.30;100589.50;4952068;28;97515;-49
2023/07/03 07:29:34;;;;;;;5.90;2.70;;;;;;;20.66;47.97;100599.72;4951537;28;97183;-49
2023/07/03 07:31:59;;;;;;;4.37;2.67;;;;;;;20.67;47.89;100586.50;4953860;28;97468;-49
2023/07/03 07:34:25;;;;;;;4.47;2.00;;;;;;;20.69;47.89;100581.84;4952998;28;97428;-49
2023/07/03 07:36:51;;;;;;;7.90;2.40;;;;;;;20.74;47.78;100617.25;4951036;28;98050;-49
2023/07/03 07:39:21;;;;;;;10.60;3.30;;;;;;;20.75;47.66;100587.97;4952765;28;97431;-49
2023/07/03 07:41:47;;;;;;;6.87;2.83;;;;;;;20.80;47.63;100589.81;4952888;28;97091;-49
2023/07/03 07:44:12;;;;;;;5.23;3.20;;;;;;;20.81;47.48;100590.56;4953235;28;97373;-49
2023/07/03 07:46:37;;;;;;;6.90;2.27;;;;;;;20.86;47.57;100581.94;4953520;28;111181;-49
2023/07/03 07:49:03;;;;;;;6.20;2.40;;;;;;;20.93;47.77;100586.03;4951914;28;100534;-49
2023/07/03 07:51:29;;;;;;;7.90;3.50;;;;;;;21.07;47.57;100584.50;4952272;28;97754;-49
2023/07/03 07:53:56;;;;;;;7.87;2.97;;;;;;;21.13;47.29;100587.81;4952592;28;97062;-49
2023/07/03 07:56:22;;;;;;;7.10;2.70;;;;;;;21.13;47.32;100593.41;4951065;28;98114;-49
2023/07/03 07:58:49;;;;;;;6.77;2.57;;;;;;;21.15;47.36;100590.03;4952619;28;97314;-49
2023/07/03 08:01:14;;;;;;;6.60;2.30;;;;;;;21.18;47.28;100577.72;4953210;28;98736;-49
2023/07/03 08:03:41;;;;;;;6.33;2.50;;;;;;;21.25;47.52;100596.53;4950650;28;96906;-49
2023/07/03 08:06:07;;;;;;;6.37;2.60;;;;;;;21.43;47.18;100595.28;4951336;28;98844;-49
2023/07/03 08:08:32;;;;;;;6.90;2.53;;;;;;;21.47;46.94;100596.38;4953358;28;97316;-49
2023/07/03 08:11:01;;;;;;;5.03;2.87;;;;;;;21.50;46.89;100598.06;4951143;28;96848;-49
2023/07/03 08:13:28;;;;;;;5.63;2.10;;;;;;;21.57;46.90;100607.72;4950638;28;97392;-49
2023/07/03 08:15:54;;;;;;;5.63;3.13;;;;;;;21.69;46.85;100594.72;4952359;28;97614;-49
2023/07/03 08:18:20;;;;;;;4.70;2.00;;;;;;;21.76;46.76;100596.75;4955754;28;97158;-49
2023/07/03 08:20:45;;;;;;;4.73;2.57;;;;;;;21.81;46.46;100598.56;4954187;28;96934;-50
2023/07/03 08:23:11;;;;;;;6.57;2.60;;;;;;;21.89;46.30;100599.28;4954216;28;97450;-49
2023/07/03 08:25:37;;;;;;;4.97;2.10;;;;;;;21.97;46.20;100594.38;4952707;28;97372;-49
2023/07/03 08:28:02;;;;;;;9.67;2.43;;;;;;;22.08;46.25;100605.09;4949403;28;98350;-49
2023/07/03 08:30:28;;;;;;;5.57;2.60;;;;;;;22.18;46.20;100605.94;4952503;28;96793;-49
2023/07/03 08:32:53;;;;;;;3.90;2.20;;;;;;;22.21;45.92;100615.25;4954195;28;97072;-49
2023/07/03 08:35:19;;;;;;;7.10;2.53;;;;;;;22.19;45.79;100620.69;4950679;28;97757;-49
2023/07/03 08:37:44;;;;;;;6.87;3.07;;;;;;;22.17;45.94;100607.25;4951241;28;97157;-49
2023/07/03 08:40:15;;;;;;;3.20;1.73;;;;;;;22.30;45.89;100609.72;4949910;28;97594;-49
2023/07/03 08:42:47;;;;;;;9.87;2.90;;;;;;;22.32;45.62;100609.91;4951261;28;96832;-49
2023/07/03 08:45:17;;;;;;;8.03;2.70;;;;;;;22.35;45.78;100614.38;4954448;28;97684;-49
2023/07/03 08:47:44;;;;;;;7.83;2.70;;;;;;;22.32;45.82;100617.59;4950702;28;97365;-49
2023/07/03 08:50:14;;;;;;;5.77;2.30;;;;;;;22.26;45.82;100620.63;4951935;28;96670;-49
2023/07/03 08:52:57;;;;;;;4.00;2.13;;;;;;;22.34;45.52;100629.69;4953839;28;97357;-49
2023/07/03 08:55:33;;;;;;;5.50;2.53;;;;;;;22.43;45.36;100624.75;4950137;28;96761;-49
2023/07/03 08:57:59;;;;;;;8.57;3.40;;;;;;;22.50;45.66;100609.94;4953979;28;97301;-49
2023/07/03 09:00:27;;;;;;;11.80;3.23;;;;;;;22.49;45.62;100602.81;4951948;28;96756;-49
2023/07/03 09:02:52;;;;;;;7.23;3.13;;;;;;;22.63;45.58;100615.25;4953236;28;97755;-49
2023/07/03 09:05:39;;;;;;;6.80;2.43;;;;;;;22.75;45.24;100608.53;4950552;28;97134;-49
2023/07/03 09:08:09;;;;;;;9.17;2.83;;;;;;;22.86;44.96;100615.72;4950092;28;96932;-49
2023/07/03 09:10:41;;;;;;;7.60;2.83;;;;;;;22.91;44.62;100604.22;4952105;28;97136;-49
2023/07/03 09:13:15;;;;;;;8.87;2.83;;;;;;;22.91;44.67;100609.81;4951406;28;97013;-49
2023/07/03 09:15:55;;;;;;;4.03;2.23;;;;;;;23.00;44.20;100617.56;4950000;28;97211;-49
2023/07/03 09:18:26;;;;;;;3.30;2.27;;;;;;;23.09;44.18;100610.53;4953127;28;97330;-49
2023/07/03 09:20:52;;;;;;;11.20;2.47;;;;;;;23.22;44.42;100618.59;4948864;28;96740;-49
2023/07/03 09:23:33;;;;;;;6.63;2.80;;;;;;;23.32;43.41;100625.03;4953053;28;97137;-49
2023/07/03 09:26:11;;;;;;;10.90;3.00;;;;;;;23.37;43.53;100618.41;4951576;28;97973;-49
2023/07/03 09:28:39;;;;;;;5.30;2.10;;;;;;;23.33;43.67;100625.78;4951297;28;97011;-49
2023/07/03 09:31:04;;;;;;;7.67;3.17;;;;;;;23.21;43.48;100625.56;4950092;28;96859;-49
2023/07/03 09:33:30;;;;;;;11.43;2.60;;;;;;;23.08;44.00;100623.84;4949148;28;97343;-49
2023/07/03 09:35:55;;;;;;;5.40;2.47;;;;;;;23.17;44.11;100630.84;4951413;28;98576;-49
2023/07/03 09:38:23;;;;;;;6.63;2.60;;;;;;;23.15;43.79;100627.13;4952836;28;97916;-49
2023/07/03 09:40:52;;;;;;;6.80;2.73;;;;;;;23.23;43.45;100644.63;4952735;28;98034;-49
2023/07/03 09:43:21;;;;;;;5.30;2.20;;;;;;;23.36;43.21;100633.06;4951592;28;97825;-49
2023/07/03 09:45:47;;;;;;;5.90;2.60;;;;;;;23.60;43.50;100626.53;4950635;28;97598;-49
2023/07/03 09:48:31;;;;;;;5.70;2.47;;;;;;;23.84;42.44;100628.41;4952272;28;97623;-49
2023/07/03 09:50:57;;;;;;;3.70;2.20;;;;;;;23.83;42.95;100629.72;4938663;28;97669;-49
2023/07/03 09:53:26;;;;;;;4.97;2.00;;;;;;;23.82;42.78;100631.81;4954381;28;97581;-49
2023/07/03 09:55:57;;;;;;;4.90;1.90;;;;;;;23.99;42.87;100627.41;4948666;28;97184;-49
2023/07/03 09:58:25;;;;;;;6.03;1.97;;;;;;;24.23;42.10;100632.84;4951013;28;97567;-49
2023/07/03 10:01:00;;;;;;;4.10;2.03;;;;;;;24.42;40.81;100635.66;4948790;28;97201;-49
2023/07/03 10:03:34;;;;;;;3.73;2.00;;;;;;;24.32;41.12;100634.19;4948588;28;97143;-49
2023/07/03 10:06:12;;;;;;;6.03;2.23;;;;;;;24.24;41.19;100625.16;4950669;28;97896;-49
2023/07/03 10:08:41;;;;;;;10.20;2.30;;;;;;;24.27;41.60;100644.38;4951095;28;97457;-49
2023/07/03 10:11:06;;;;;;;7.97;2.60;;;;;;;24.40;42.00;100641.16;4948602;28;97323;-49
2023/07/03 10:13:42;;;;;;;8.03;2.60;;;;;;;24.39;40.04;100636.88;4949118;28;96854;-49
2023/07/03 10:16:11;;;;;;;5.23;1.87;;;;;;;24.19;41.21;100638.16;4951040;28;98630;-49
2023/07/03 10:18:39;;;;;;;5.10;2.07;;;;;;;24.15;40.99;100635.03;4950240;28;97728;-49
2023/07/03 10:21:10;;;;;;;3.33;1.57;;;;;;;24.25;41.08;100632.97;4951783;28;97687;-48
2023/07/03 10:23:39;;;;;;;6.80;1.67;;;;;;;24.35;40.30;100638.63;4951804;28;97260;-49
2023/07/03 10:26:17;;;;;;;2.80;1.83;;;;;;;24.50;39.46;100632.72;4951020;28;97305;-49
2023/07/03 10:28:58;;;;;;;4.53;1.83;;;;;;;24.48;38.65;100638.97;4949080;28;97958;-49
2023/07/03 10:31:46;;;;;;;3.63;1.73;;;;;;;24.50;38.67;100629.91;4952726;28;97272;-49
2023/07/03 10:34:22;;;;;;;3.43;1.77;;;;;;;24.51;39.06;100637.00;4947882;28;96978;-49
2023/07/03 10:36:50;;;;;;;4.87;1.43;;;;;;;24.53;39.82;100642.78;4950848;28;98227;-49
2023/07/03 10:39:27;;;;;;;2.20;1.63;;;;;;;24.65;38.97;100640.88;4949206;28;97551;-49
2023/07/03 10:41:59;;;;;;;1.90;1.40;;;;;;;24.68;38.75;100634.09;4950828;28;96821;-49
2023/07/03 10:44:36;;;;;;;5.87;1.60;;;;;;;24.58;37.08;100631.25;4949475;28;96974;-49
2023/07/03 10:47:28;;;;;;;2.97;1.33;;;;;;;24.53;36.95;100620.28;4949442;28;96988;-49
2023/07/03 10:49:54;;;;;;;4.67;1.53;;;;;;;24.70;38.89;100651.13;4950767;28;97320;-49
2023/07/03 10:52:34;;;;;;;6.90;2.07;;;;;;;24.70;36.57;100625.78;4950304;28;97083;-49
2023/07/03 10:55:12;;;;;;;1.93;1.40;;;;;;;24.76;37.83;100633.94;4949155;28;97344;-49
2023/07/03 10:57:48;;;;;;;3.90;1.33;;;;;;;24.77;38.01;100638.25;4951265;28;97565;-49
2023/07/03 11:00:42;;;;;;;7.20;1.90;;;;;;;24.75;37.70;100638.84;4952642;28;97457;-49
2023/07/03 11:03:40;;;;;;;4.50;1.60;;;;;;;24.74;36.73;100634.53;4936537;28;98324;-49
2023/07/03 11:06:12;;;;;;;2.63;1.43;;;;;;;24.62;37.78;100635.72;4950039;28;99488;-50
2023/07/03 11:08:46;;;;;;;5.40;1.47;;;;;;;24.43;37.37;100639.22;4950323;28;97405;-49
2023/07/03 11:11:24;;;;;;;4.20;1.33;;;;;;;24.20;37.15;100641.72;4948498;28;97134;-49
2023/07/03 11:14:05;;;;;;;3.37;1.47;;;;;;;24.03;37.01;100647.38;4950083;28;97131;-49
2023/07/03 11:16:57;;;;;;;2.50;1.20;;;;;;;23.96;37.96;100642.66;4951431;28;97192;-49
2023/07/03 11:19:29;;;;;;;3.30;1.77;;;;;;;23.90;38.95;100642.91;4946705;28;97576;-49
2023/07/03 11:22:14;;;;;;;3.97;1.67;;;;;;;23.80;37.58;100656.19;4949984;28;97503;-49
2023/07/03 11:24:52;;;;;;;7.43;2.13;;;;;;;23.77;38.67;100658.09;4949381;28;97299;-49
2023/07/03 11:27:33;;;;;;;4.57;2.27;;;;;;;23.87;38.89;100644.09;4950603;28;97313;-49
2023/07/03 11:30:00;;;;;;;5.33;1.40;;;;;;;24.14;38.59;100639.16;4950306;28;98055;-49